Johnstown, North Dakota
Current Conditions -  °F | °C
As of 7:04 PM on Sunday 23 Nov 2014 (Local Time) from KRDR Reporting Station
Freezing Rain Freezing Rain  
Wind Chill:   Ceiling: 1000
Heat Index: 18°   Visibility: 10mi
Dew Point: 16°   Wind: 12mph
Humidity: 93%   Direction: 340°NNW
Pressure: 29.58"   Gusts: NA
Location:  48.1078°N, 97.4492°W
Report Text: KRDR 240104Z 34010KT 10SM -FZRA OVC010 M08/M09 A2958 RMK AO2A CIG 006 RWY17
Loading
Personal Weather Stations






























Interactive Weather Map New forecast layout! Learn more

10-Day Weather Forecast

Advertisements
Track Severe Weather on mobile